Aviation Digital Data Service (ADDS)

Output produced by METARs form (0312 UTC 30 September 2016)
found at http://aviationweather.gov/adds/metars/
 
KCAR 292320Z 3000/3024 VRB03KT P6SM FEW200 
     FM301600 31003KT P6SM SKC